createdAt,value
2018-02-13T00:00:21.123Z,82.72
2018-02-13T00:01:21.063Z,82.72
2018-02-13T00:02:21.012Z,82.72
2018-02-13T00:03:20.958Z,82.53
2018-02-13T00:04:20.905Z,82.63
2018-02-13T00:05:20.853Z,82.63
2018-02-13T00:06:20.799Z,82.82
2018-02-13T00:07:20.796Z,82.91
2018-02-13T00:08:20.694Z,82.82
2018-02-13T00:09:20.641Z,82.63
2018-02-13T00:10:20.587Z,82.72
2018-02-13T00:11:20.535Z,82.53
2018-02-13T00:12:20.482Z,82.44
2018-02-13T00:13:20.429Z,82.82
2018-02-13T00:14:20.376Z,82.91
2018-02-13T00:15:20.324Z,82.91
2018-02-13T00:16:20.271Z,82.86
2018-02-13T00:17:20.218Z,82.44
2018-02-13T00:18:20.165Z,82.48
2018-02-13T00:19:20.112Z,82.39
2018-02-13T00:20:20.060Z,82.48
2018-02-13T00:21:20.008Z,82.01
2018-02-13T00:22:19.954Z,82.20
2018-02-13T00:23:19.904Z,82.20
2018-02-13T00:24:19.849Z,81.92
2018-02-13T00:25:19.797Z,81.82
2018-02-13T00:26:19.743Z,81.82
2018-02-13T00:27:19.690Z,81.34
2018-02-13T00:28:19.638Z,81.53
2018-02-13T00:29:19.586Z,81.53
2018-02-13T00:30:19.537Z,80.87
2018-02-13T00:31:19.487Z,81.34
2018-02-13T00:32:19.428Z,81.53
2018-02-13T00:33:19.376Z,80.87
2018-02-13T00:34:19.328Z,80.68
2018-02-13T00:35:19.270Z,80.68
2018-02-13T00:36:19.217Z,80.77
2018-02-13T00:37:19.165Z,80.58
2018-02-13T00:38:19.112Z,80.58
2018-02-13T00:39:19.060Z,80.49
2018-02-13T00:40:19.007Z,80.68
2018-02-13T00:41:18.955Z,80.49
2018-02-13T00:42:19.003Z,80.49
2018-02-13T00:43:18.850Z,80.68
2018-02-13T00:44:18.805Z,80.30
2018-02-13T00:45:18.746Z,80.40
2018-02-13T00:46:18.697Z,80.40
2018-02-13T00:47:18.640Z,80.58
2018-02-13T00:48:18.590Z,80.58
2018-02-13T00:49:18.535Z,80.30
2018-02-13T00:50:18.482Z,80.40
2018-02-13T00:51:18.431Z,80.30
2018-02-13T00:52:18.378Z,80.58
2018-02-13T00:53:18.326Z,80.58
2018-02-13T00:54:18.273Z,80.30
2018-02-13T00:55:18.221Z,80.58
2018-02-13T00:56:18.168Z,80.77
2018-02-13T00:57:18.116Z,80.49
2018-02-13T00:58:18.063Z,80.49
2018-02-13T00:59:18.011Z,80.49
2018-02-13T01:00:17.965Z,80.49
2018-02-13T01:01:17.932Z,80.58
2018-02-13T01:02:17.859Z,80.40
2018-02-13T01:03:17.806Z,80.49
2018-02-13T01:04:17.750Z,80.87
2018-02-13T01:05:17.698Z,80.96
2018-02-13T01:06:17.644Z,80.87
2018-02-13T01:07:17.591Z,80.96
2018-02-13T01:08:17.539Z,81.15
2018-02-13T01:09:17.489Z,80.77
2018-02-13T01:10:17.434Z,80.77
2018-02-13T01:11:17.382Z,80.87
2018-02-13T01:12:17.329Z,80.87
2018-02-13T01:13:17.276Z,80.96
2018-02-13T01:14:17.224Z,80.96
2018-02-13T01:15:17.174Z,80.96
2018-02-13T01:16:17.119Z,80.58
2018-02-13T01:17:17.067Z,80.96
2018-02-13T01:18:17.014Z,80.68
2018-02-13T01:19:16.961Z,80.87
2018-02-13T01:20:16.909Z,80.87
2018-02-13T01:21:16.861Z,80.87
2018-02-13T01:22:16.804Z,80.87
2018-02-13T01:23:16.751Z,81.25
2018-02-13T01:24:16.699Z,81.15
2018-02-13T01:25:16.647Z,81.53
2018-02-13T01:26:16.593Z,81.53
2018-02-13T01:27:16.542Z,81.63
2018-02-13T01:28:16.489Z,82.39
2018-02-13T01:29:16.436Z,82.76
2018-02-13T01:30:16.383Z,82.67
2018-02-13T01:31:16.331Z,83.43
2018-02-13T01:32:16.279Z,83.33
2018-02-13T01:33:16.226Z,83.62
2018-02-13T01:34:16.173Z,84.00
2018-02-13T01:35:16.120Z,83.62
2018-02-13T01:36:16.071Z,83.81
2018-02-13T01:37:16.018Z,84.75
2018-02-13T01:38:15.963Z,84.85
2018-02-13T01:39:15.911Z,84.38
2018-02-13T01:40:15.863Z,84.80
2018-02-13T01:41:15.806Z,83.81
2018-02-13T01:42:15.753Z,84.47
2018-02-13T01:43:15.701Z,84.56
2018-02-13T01:44:15.649Z,84.47
2018-02-13T01:45:15.596Z,84.75
2018-02-13T01:46:15.549Z,84.56
2018-02-13T01:47:15.491Z,84.61
2018-02-13T01:48:15.439Z,84.47
2018-02-13T01:49:15.387Z,84.47
2018-02-13T01:50:15.333Z,84.56
2018-02-13T01:51:15.281Z,84.66
2018-02-13T01:52:15.229Z,84.47
2018-02-13T01:53:15.177Z,84.19
2018-02-13T01:54:15.123Z,84.38
2018-02-13T01:55:15.124Z,84.38
2018-02-13T01:56:15.020Z,84.56
2018-02-13T01:57:14.967Z,84.32
2018-02-13T01:58:14.914Z,84.32
2018-02-13T01:59:14.862Z,84.47
2018-02-13T02:00:14.810Z,84.70
2018-02-13T02:01:14.758Z,84.47
2018-02-13T02:02:14.704Z,84.47
2018-02-13T02:03:14.652Z,84.47
2018-02-13T02:04:14.600Z,83.94
2018-02-13T02:05:14.548Z,83.81
2018-02-13T02:06:14.594Z,84.00
2018-02-13T02:07:14.443Z,84.09
2018-02-13T02:08:14.390Z,84.00
2018-02-13T02:09:14.338Z,84.00
2018-02-13T02:10:14.288Z,84.09
2018-02-13T02:11:14.233Z,83.90
2018-02-13T02:12:14.182Z,84.00
2018-02-13T02:13:14.129Z,84.00
2018-02-13T02:14:14.076Z,84.09
2018-02-13T02:15:14.024Z,83.81
2018-02-13T02:16:13.973Z,83.81
2018-02-13T02:17:13.919Z,84.09
2018-02-13T02:18:13.866Z,83.62
2018-02-13T02:19:13.813Z,83.62
2018-02-13T02:20:13.763Z,83.90
2018-02-13T02:21:13.713Z,84.47
2018-02-13T02:22:13.656Z,84.38
2018-02-13T02:23:13.604Z,84.47
2018-02-13T02:24:13.561Z,84.56
2018-02-13T02:25:13.506Z,84.47
2018-02-13T02:26:13.446Z,84.47
2018-02-13T02:27:13.394Z,84.56
2018-02-13T02:28:13.342Z,84.56
2018-02-13T02:29:13.289Z,84.75
2018-02-13T02:30:13.236Z,84.56
2018-02-13T02:31:13.184Z,84.56
2018-02-13T02:32:13.131Z,84.56
2018-02-13T02:33:13.082Z,84.38
2018-02-13T02:34:13.030Z,84.47
2018-02-13T02:35:12.974Z,84.00
2018-02-13T02:36:12.921Z,83.90
2018-02-13T02:37:12.869Z,83.81
2018-02-13T02:38:12.816Z,84.09
2018-02-13T02:39:12.764Z,84.00
2018-02-13T02:40:12.711Z,83.52
2018-02-13T02:41:12.660Z,83.24
2018-02-13T02:42:12.610Z,83.43
2018-02-13T02:43:12.554Z,83.05
2018-02-13T02:44:12.502Z,82.57
2018-02-13T02:45:12.450Z,82.48
2018-02-13T02:46:12.396Z,82.76
2018-02-13T02:47:12.364Z,82.76
2018-02-13T02:48:12.293Z,82.86
2018-02-13T02:49:12.240Z,82.67
2018-02-13T02:50:12.190Z,82.57
2018-02-13T02:51:12.135Z,83.33
2018-02-13T02:52:12.083Z,83.33
2018-02-13T02:53:12.030Z,82.95
2018-02-13T02:54:11.978Z,83.33
2018-02-13T02:55:11.932Z,83.14
2018-02-13T02:56:11.874Z,82.95
2018-02-13T02:57:11.821Z,83.62
2018-02-13T02:58:11.768Z,83.43
2018-02-13T02:59:11.715Z,83.90
2018-02-13T03:00:11.664Z,83.81
2018-02-13T03:01:11.616Z,83.81
2018-02-13T03:02:11.558Z,83.71
2018-02-13T03:03:11.511Z,83.81
2018-02-13T03:04:11.453Z,83.52
2018-02-13T03:05:11.401Z,83.62
2018-02-13T03:06:11.348Z,83.62
2018-02-13T03:07:11.296Z,84.00
2018-02-13T03:08:11.243Z,83.71
2018-02-13T03:09:11.191Z,84.00
2018-02-13T03:10:11.137Z,84.00
2018-02-13T03:11:11.085Z,84.00
2018-02-13T03:12:11.033Z,84.00
2018-02-13T03:13:10.982Z,84.14
2018-02-13T03:14:10.927Z,83.58
2018-02-13T03:15:10.875Z,83.76
2018-02-13T03:16:10.823Z,83.95
2018-02-13T03:17:10.770Z,84.71
2018-02-13T03:18:10.717Z,84.71
2018-02-13T03:19:10.664Z,84.71
2018-02-13T03:20:10.612Z,84.52
2018-02-13T03:21:10.560Z,84.52
2018-02-13T03:22:10.506Z,84.33
2018-02-13T03:23:10.454Z,84.81
2018-02-13T03:24:10.400Z,84.81
2018-02-13T03:25:10.349Z,84.61
2018-02-13T03:26:10.295Z,84.33
2018-02-13T03:27:10.243Z,85.28
2018-02-13T03:28:10.190Z,85.09
2018-02-13T03:29:10.138Z,84.90
2018-02-13T03:30:10.085Z,85.09
2018-02-13T03:31:10.032Z,85.09
2018-02-13T03:32:09.979Z,85.00
2018-02-13T03:33:09.926Z,85.09
2018-02-13T03:34:09.872Z,84.90
2018-02-13T03:35:09.820Z,85.09
2018-02-13T03:36:09.770Z,85.09
2018-02-13T03:37:09.715Z,85.09
2018-02-13T03:38:09.661Z,85.19
2018-02-13T03:39:09.608Z,85.09
2018-02-13T03:40:09.557Z,85.09
2018-02-13T03:41:09.503Z,85.85
2018-02-13T03:42:09.449Z,85.66
2018-02-13T03:43:09.396Z,85.47
2018-02-13T03:44:09.344Z,85.38
2018-02-13T03:45:09.291Z,85.57
2018-02-13T03:46:09.237Z,85.00
2018-02-13T03:47:09.184Z,85.00
2018-02-13T03:48:09.131Z,85.38
2018-02-13T03:49:09.079Z,85.38
2018-02-13T03:50:09.025Z,85.47
2018-02-13T03:51:08.972Z,85.47
2018-02-13T03:52:08.919Z,85.47
2018-02-13T03:53:08.926Z,85.38
2018-02-13T03:54:08.813Z,85.47
2018-02-13T03:55:08.760Z,85.47
2018-02-13T03:56:08.707Z,85.38
2018-02-13T03:57:08.654Z,85.38
2018-02-13T03:58:08.601Z,85.19
2018-02-13T03:59:08.548Z,85.28
2018-02-13T04:00:08.495Z,85.28
2018-02-13T04:01:08.446Z,85.19
2018-02-13T04:02:08.388Z,85.33
2018-02-13T04:03:08.336Z,85.14
2018-02-13T04:04:08.283Z,84.86
2018-02-13T04:05:08.228Z,85.05
2018-02-13T04:06:08.176Z,85.05
2018-02-13T04:07:08.123Z,85.05
2018-02-13T04:08:08.072Z,85.05
2018-02-13T04:09:08.017Z,85.14
2018-02-13T04:10:07.963Z,85.57
2018-02-13T04:11:07.910Z,85.24
2018-02-13T04:12:07.857Z,85.19
2018-02-13T04:13:07.805Z,85.14
2018-02-13T04:14:07.750Z,85.61
2018-02-13T04:15:07.697Z,85.33
2018-02-13T04:16:07.645Z,85.33
2018-02-13T04:17:07.591Z,85.33
2018-02-13T04:18:07.537Z,85.99
2018-02-13T04:19:07.485Z,85.61
2018-02-13T04:20:07.433Z,85.61
2018-02-13T04:21:07.379Z,85.90
2018-02-13T04:22:07.325Z,85.61
2018-02-13T04:23:07.272Z,86.09
2018-02-13T04:24:07.220Z,85.71
2018-02-13T04:25:07.166Z,85.90
2018-02-13T04:26:07.112Z,85.71
2018-02-13T04:27:07.060Z,85.90
2018-02-13T04:28:07.006Z,85.90
2018-02-13T04:29:06.953Z,85.90
2018-02-13T04:30:06.899Z,85.80
2018-02-13T04:31:06.846Z,85.71
2018-02-13T04:32:06.794Z,85.71
2018-02-13T04:33:06.740Z,85.80
2018-02-13T04:34:06.690Z,85.61
2018-02-13T04:35:06.635Z,85.71
2018-02-13T04:36:06.583Z,85.90
2018-02-13T04:37:06.528Z,85.52
2018-02-13T04:38:06.474Z,85.61
2018-02-13T04:39:06.420Z,85.71
2018-02-13T04:40:06.367Z,85.71
2018-02-13T04:41:06.315Z,85.61
2018-02-13T04:42:06.261Z,85.90
2018-02-13T04:43:06.207Z,85.52
2018-02-13T04:44:06.155Z,86.28
2018-02-13T04:45:06.103Z,86.28
2018-02-13T04:46:06.048Z,86.28
2018-02-13T04:47:05.994Z,86.09
2018-02-13T04:48:05.941Z,86.47
2018-02-13T04:49:05.888Z,86.28
2018-02-13T04:50:05.834Z,86.47
2018-02-13T04:51:05.781Z,86.18
2018-02-13T04:52:05.735Z,86.28
2018-02-13T04:53:05.725Z,86.28
2018-02-13T04:54:05.621Z,86.18
2018-02-13T04:55:05.568Z,86.18
2018-02-13T04:56:05.518Z,86.47
2018-02-13T04:57:05.462Z,86.18
2018-02-13T04:58:05.408Z,85.90
2018-02-13T04:59:05.359Z,86.09
2018-02-13T05:00:05.309Z,86.75
2018-02-13T05:01:05.248Z,86.85
2018-02-13T05:02:05.196Z,86.66
2018-02-13T05:03:05.141Z,86.75
2018-02-13T05:04:05.088Z,86.75
2018-02-13T05:05:05.035Z,86.75
2018-02-13T05:06:04.980Z,86.75
2018-02-13T05:07:04.927Z,86.66
2018-02-13T05:08:04.874Z,86.56
2018-02-13T05:09:04.821Z,86.37
2018-02-13T05:10:04.767Z,87.04
2018-02-13T05:11:04.715Z,86.66
2018-02-13T05:12:04.662Z,86.94
2018-02-13T05:13:04.607Z,86.94
2018-02-13T05:14:04.552Z,87.04
2018-02-13T05:15:04.499Z,86.94
2018-02-13T05:16:04.446Z,86.66
2018-02-13T05:17:04.393Z,86.85
2018-02-13T05:18:04.339Z,86.75
2018-02-13T05:19:04.287Z,86.85
2018-02-13T05:20:04.232Z,86.85
2018-02-13T05:21:04.179Z,87.13
2018-02-13T05:22:04.124Z,87.04
2018-02-13T05:23:04.071Z,87.13
2018-02-13T05:24:04.018Z,87.13
2018-02-13T05:25:04.018Z,87.04
2018-02-13T05:26:03.910Z,86.75
2018-02-13T05:27:03.857Z,87.13
2018-02-13T05:28:03.804Z,87.04
2018-02-13T05:29:03.751Z,87.04
2018-02-13T05:30:03.695Z,87.13
2018-02-13T05:31:03.643Z,86.94
2018-02-13T05:32:03.590Z,86.94
2018-02-13T05:33:03.537Z,87.13
2018-02-13T05:34:03.484Z,86.85
2018-02-13T05:35:03.430Z,87.04
2018-02-13T05:36:03.379Z,86.75
2018-02-13T05:37:03.322Z,86.85
2018-02-13T05:38:03.268Z,86.94
2018-02-13T05:39:03.214Z,86.94
2018-02-13T05:40:03.161Z,86.94
2018-02-13T05:41:03.108Z,86.85
2018-02-13T05:42:03.054Z,87.04
2018-02-13T05:43:03.001Z,87.04
2018-02-13T05:44:02.947Z,87.04
2018-02-13T05:45:02.894Z,86.94
2018-02-13T05:46:02.840Z,87.13
2018-02-13T05:47:02.786Z,86.66
2018-02-13T05:48:02.733Z,87.13
2018-02-13T05:49:02.679Z,87.04
2018-02-13T05:50:02.628Z,87.04
2018-02-13T05:51:02.574Z,87.04
2018-02-13T05:52:02.519Z,86.94
2018-02-13T05:53:02.465Z,86.66
2018-02-13T05:54:02.411Z,86.85
2018-02-13T05:55:02.364Z,86.37
2018-02-13T05:56:02.304Z,86.47
2018-02-13T05:57:02.255Z,86.56
2018-02-13T05:58:02.197Z,86.66
2018-02-13T05:59:02.143Z,86.56
2018-02-13T06:00:02.090Z,86.56
2018-02-13T06:01:02.047Z,86.75
2018-02-13T06:02:01.983Z,86.66
2018-02-13T06:03:01.929Z,86.75
2018-02-13T06:04:01.876Z,86.85
2018-02-13T06:05:01.822Z,86.85
2018-02-13T06:06:01.770Z,86.75
2018-02-13T06:07:01.715Z,86.66
2018-02-13T06:08:01.661Z,86.85
2018-02-13T06:09:01.608Z,86.66
2018-02-13T06:10:01.553Z,86.94
2018-02-13T06:11:01.500Z,86.66
2018-02-13T06:12:01.446Z,86.09
2018-02-13T06:13:01.394Z,86.75
2018-02-13T06:14:01.339Z,86.09
2018-02-13T06:15:01.285Z,86.09
2018-02-13T06:16:01.233Z,86.37
2018-02-13T06:17:01.178Z,86.18
2018-02-13T06:18:01.126Z,86.09
2018-02-13T06:19:01.115Z,86.09
2018-02-13T06:20:01.021Z,86.47
2018-02-13T06:21:00.964Z,86.28
2018-02-13T06:22:00.910Z,86.66
2018-02-13T06:23:00.855Z,86.28
2018-02-13T06:24:00.802Z,86.28
2018-02-13T06:25:00.749Z,86.66
2018-02-13T06:26:00.694Z,86.18
2018-02-13T06:27:00.641Z,86.28
2018-02-13T06:28:00.587Z,86.28
2018-02-13T06:29:00.533Z,86.47
2018-02-13T06:30:00.480Z,86.47
2018-02-13T06:31:00.426Z,86.37
2018-02-13T06:32:00.372Z,86.18
2018-02-13T06:33:00.319Z,86.28
2018-02-13T06:34:00.273Z,86.09
2018-02-13T06:35:00.212Z,86.28
2018-02-13T06:36:00.158Z,86.37
2018-02-13T06:37:00.105Z,85.52
2018-02-13T06:38:00.051Z,85.90
2018-02-13T06:38:59.996Z,85.71
2018-02-13T06:39:59.946Z,85.61
2018-02-13T06:40:59.890Z,85.61
2018-02-13T06:41:59.835Z,85.80
2018-02-13T06:42:59.783Z,85.90
2018-02-13T06:43:59.729Z,85.90
2018-02-13T06:44:59.676Z,85.42
2018-02-13T06:45:59.629Z,85.80
2018-02-13T06:46:59.568Z,85.80
2018-02-13T06:47:59.515Z,85.24
2018-02-13T06:48:59.461Z,85.33
2018-02-13T06:49:59.410Z,85.42
2018-02-13T06:50:59.356Z,85.24
2018-02-13T06:51:59.301Z,85.05
2018-02-13T06:52:59.248Z,85.05
2018-02-13T06:53:59.194Z,85.33
2018-02-13T06:54:59.140Z,85.52
2018-02-13T06:55:59.137Z,85.61
2018-02-13T06:56:59.035Z,85.71
2018-02-13T06:57:58.981Z,85.24
2018-02-13T06:58:58.927Z,84.77
2018-02-13T06:59:58.873Z,85.24
2018-02-13T07:00:58.822Z,85.05
2018-02-13T07:01:58.767Z,85.24
2018-02-13T07:02:58.713Z,84.58
2018-02-13T07:03:58.661Z,84.42
2018-02-13T07:04:58.608Z,84.52
2018-02-13T07:05:58.554Z,84.42
2018-02-13T07:06:58.500Z,84.23
2018-02-13T07:07:58.448Z,84.71
2018-02-13T07:08:58.399Z,84.52
2018-02-13T07:09:58.341Z,83.95
2018-02-13T07:10:58.288Z,83.86
2018-02-13T07:11:58.237Z,83.76
2018-02-13T07:12:58.182Z,83.48
2018-02-13T07:13:58.129Z,83.39
2018-02-13T07:14:58.077Z,82.57
2018-02-13T07:15:58.025Z,82.29
2018-02-13T07:16:57.972Z,81.38
2018-02-13T07:17:57.919Z,80.63
2018-02-13T07:18:57.870Z,79.15
2018-02-13T07:19:57.815Z,78.39
2018-02-13T07:20:57.765Z,77.48
2018-02-13T07:21:57.717Z,76.92
2018-02-13T07:22:57.662Z,75.91
2018-02-13T07:23:57.709Z,75.81
2018-02-13T07:24:57.557Z,74.43
2018-02-13T07:25:57.514Z,73.38
2018-02-13T07:26:57.463Z,73.48
2018-02-13T07:27:57.409Z,72.09
2018-02-13T07:28:57.355Z,71.14
2018-02-13T07:29:57.305Z,70.95
2018-02-13T07:30:57.258Z,70.32
2018-02-13T07:31:57.207Z,69.46
2018-02-13T07:32:57.208Z,68.90
2018-02-13T07:33:57.107Z,68.55
2018-02-13T07:34:57.059Z,67.98
2018-02-13T07:35:57.011Z,67.13
2018-02-13T07:36:56.962Z,66.97
2018-02-13T07:37:56.919Z,66.02
2018-02-13T07:38:56.864Z,65.64
2018-02-13T07:39:56.818Z,64.97
2018-02-13T07:40:56.770Z,64.34
2018-02-13T07:41:56.722Z,63.57
2018-02-13T07:42:56.675Z,63.10
2018-02-13T07:43:56.627Z,62.81
2018-02-13T07:44:56.581Z,62.81
2018-02-13T07:45:56.532Z,62.75
2018-02-13T07:46:56.520Z,62.46
2018-02-13T07:47:56.439Z,61.51
2018-02-13T07:48:56.444Z,60.97
2018-02-13T07:49:56.348Z,61.07
2018-02-13T07:50:56.302Z,60.30
2018-02-13T07:51:56.257Z,59.35
2018-02-13T07:52:56.210Z,59.16
2018-02-13T07:53:56.163Z,59.00
2018-02-13T07:54:56.119Z,57.95
2018-02-13T07:55:56.074Z,57.57
2018-02-13T07:56:56.031Z,57.19
2018-02-13T07:57:55.983Z,56.65
2018-02-13T07:58:55.939Z,56.17
2018-02-13T07:59:55.892Z,55.79
2018-02-13T08:00:55.849Z,55.12
2018-02-13T08:01:55.804Z,54.93
2018-02-13T08:02:55.759Z,54.57
2018-02-13T08:03:55.714Z,54.00
2018-02-13T08:04:55.671Z,53.24
2018-02-13T08:05:55.625Z,52.98
2018-02-13T08:06:55.581Z,52.03
2018-02-13T08:07:55.537Z,52.12
2018-02-13T08:08:55.494Z,51.26
2018-02-13T08:09:55.449Z,51.19
2018-02-13T08:10:55.405Z,51.00
2018-02-13T08:11:55.362Z,50.43
2018-02-13T08:12:55.324Z,49.76
2018-02-13T08:13:55.275Z,49.40
2018-02-13T08:14:55.234Z,49.21
2018-02-13T08:15:55.189Z,48.73
2018-02-13T08:16:55.146Z,47.87
2018-02-13T08:17:55.110Z,48.35
2018-02-13T08:18:55.059Z,47.68
2018-02-13T08:19:55.018Z,47.11
2018-02-13T08:20:54.976Z,46.82
2018-02-13T08:21:54.932Z,46.66
2018-02-13T08:22:54.941Z,46.66
2018-02-13T08:23:54.849Z,46.27
2018-02-13T08:24:54.810Z,46.17
2018-02-13T08:25:54.767Z,45.89
2018-02-13T08:26:54.721Z,45.60
2018-02-13T08:27:54.681Z,45.70
2018-02-13T08:28:54.645Z,45.41
2018-02-13T08:29:54.601Z,45.05
2018-02-13T08:30:54.555Z,44.09
2018-02-13T08:31:54.514Z,44.19
2018-02-13T08:32:54.471Z,44.38
2018-02-13T08:33:54.429Z,44.67
2018-02-13T08:34:54.396Z,44.31
2018-02-13T08:35:54.350Z,43.54
2018-02-13T08:36:54.307Z,43.18
2018-02-13T08:37:54.265Z,42.70
2018-02-13T08:38:54.225Z,42.14
2018-02-13T08:39:54.184Z,42.24
2018-02-13T08:40:54.144Z,41.86
2018-02-13T08:41:54.102Z,41.09
2018-02-13T08:42:54.061Z,40.90
2018-02-13T08:43:54.026Z,40.81
2018-02-13T08:44:53.985Z,40.92
2018-02-13T08:45:53.941Z,40.35
2018-02-13T08:46:53.901Z,40.06
2018-02-13T08:47:53.868Z,39.87
2018-02-13T08:48:53.822Z,39.50
2018-02-13T08:49:53.781Z,39.41
2018-02-13T08:50:53.742Z,39.12
2018-02-13T08:51:53.704Z,38.81
2018-02-13T08:52:53.665Z,38.81
2018-02-13T08:53:53.623Z,38.62
2018-02-13T08:54:53.588Z,38.64
2018-02-13T08:55:53.545Z,38.45
2018-02-13T08:56:53.508Z,38.07
2018-02-13T08:57:53.466Z,38.16
2018-02-13T08:58:53.426Z,37.68
2018-02-13T08:59:53.388Z,37.78
2018-02-13T09:00:53.349Z,37.59
2018-02-13T09:01:53.308Z,37.51
2018-02-13T09:02:53.271Z,36.93
2018-02-13T09:03:53.232Z,37.32
2018-02-13T09:04:53.193Z,37.32
2018-02-13T09:05:53.154Z,37.13
2018-02-13T09:06:53.179Z,36.76
2018-02-13T09:07:53.078Z,36.95
2018-02-13T09:08:53.040Z,36.47
2018-02-13T09:09:53.000Z,35.49
2018-02-13T09:10:52.963Z,35.69
2018-02-13T09:11:52.927Z,35.96
2018-02-13T09:12:52.887Z,36.16
2018-02-13T09:13:52.846Z,35.97
2018-02-13T09:14:52.809Z,35.88
2018-02-13T09:15:52.770Z,35.97
2018-02-13T09:16:52.733Z,35.97
2018-02-13T09:17:52.697Z,35.97
2018-02-13T09:18:52.654Z,36.07
2018-02-13T09:19:52.622Z,35.78
2018-02-13T09:20:52.578Z,35.59
2018-02-13T09:21:52.539Z,35.69
2018-02-13T09:22:52.500Z,35.30
2018-02-13T09:23:52.463Z,34.92
2018-02-13T09:24:52.473Z,34.94
2018-02-13T09:25:52.390Z,34.92
2018-02-13T09:26:52.346Z,34.92
2018-02-13T09:27:52.309Z,35.13
2018-02-13T09:28:52.271Z,34.65
2018-02-13T09:29:52.229Z,34.75
2018-02-13T09:30:52.189Z,34.38
2018-02-13T09:31:52.151Z,34.09
2018-02-13T09:32:52.112Z,34.09
2018-02-13T09:33:52.072Z,33.61
2018-02-13T09:34:52.033Z,33.88
2018-02-13T09:35:51.994Z,34.27
2018-02-13T09:36:51.954Z,34.63
2018-02-13T09:37:51.914Z,34.63
2018-02-13T09:38:51.876Z,34.71
2018-02-13T09:39:51.838Z,35.94
2018-02-13T09:40:51.798Z,36.30
2018-02-13T09:41:51.758Z,36.49
2018-02-13T09:42:51.719Z,37.15
2018-02-13T09:43:51.680Z,37.51
2018-02-13T09:44:51.641Z,38.35
2018-02-13T09:45:51.643Z,39.20
2018-02-13T09:46:51.562Z,39.65
2018-02-13T09:47:51.521Z,40.30
2018-02-13T09:48:51.481Z,41.26
2018-02-13T09:49:51.440Z,42.00
2018-02-13T09:50:51.417Z,42.65
2018-02-13T09:51:51.359Z,42.84
2018-02-13T09:52:51.321Z,43.96
2018-02-13T09:53:51.278Z,43.87
2018-02-13T09:54:51.237Z,44.13
2018-02-13T09:55:51.196Z,45.08
2018-02-13T09:56:51.154Z,45.47
2018-02-13T09:57:51.111Z,46.20
2018-02-13T09:58:51.069Z,46.30
2018-02-13T09:59:51.028Z,47.23
2018-02-13T10:00:50.984Z,47.13
2018-02-13T10:01:50.940Z,47.61
2018-02-13T10:02:50.896Z,48.37
2018-02-13T10:03:50.856Z,48.44
2018-02-13T10:04:50.809Z,49.30
2018-02-13T10:05:50.764Z,48.92
2018-02-13T10:06:50.719Z,49.11
2018-02-13T10:07:50.675Z,49.58
2018-02-13T10:08:50.631Z,49.58
2018-02-13T10:09:50.586Z,49.87
2018-02-13T10:10:50.540Z,50.15
2018-02-13T10:11:50.497Z,50.82
2018-02-13T10:12:50.452Z,50.63
2018-02-13T10:13:50.410Z,51.10
2018-02-13T10:14:50.361Z,50.89
2018-02-13T10:15:50.316Z,51.27
2018-02-13T10:16:50.270Z,51.56
2018-02-13T10:17:50.224Z,51.93
2018-02-13T10:18:50.179Z,51.75
2018-02-13T10:19:50.137Z,52.03
2018-02-13T10:20:50.088Z,52.98
2018-02-13T10:21:50.040Z,52.96
2018-02-13T10:22:49.995Z,53.15
2018-02-13T10:23:49.949Z,53.15
2018-02-13T10:24:49.903Z,53.34
2018-02-13T10:25:49.855Z,53.72
2018-02-13T10:26:49.809Z,54.29
2018-02-13T10:27:49.763Z,54.19
2018-02-13T10:28:49.716Z,53.81
2018-02-13T10:29:49.678Z,54.38
2018-02-13T10:30:49.624Z,54.10
2018-02-13T10:31:49.576Z,54.00
2018-02-13T10:32:49.530Z,54.38
2018-02-13T10:33:49.482Z,54.19
2018-02-13T10:34:49.437Z,54.38
2018-02-13T10:35:49.435Z,54.48
2018-02-13T10:36:49.343Z,55.15
2018-02-13T10:37:49.295Z,54.77
2018-02-13T10:38:49.248Z,55.05
2018-02-13T10:39:49.202Z,55.52
2018-02-13T10:40:49.155Z,55.52
2018-02-13T10:41:49.108Z,55.43
2018-02-13T10:42:49.060Z,55.33
2018-02-13T10:43:49.014Z,55.15
2018-02-13T10:44:48.970Z,55.24
2018-02-13T10:45:48.919Z,55.15
2018-02-13T10:46:48.872Z,55.15
2018-02-13T10:47:48.827Z,55.24
2018-02-13T10:48:48.781Z,55.15
2018-02-13T10:49:48.785Z,55.15
2018-02-13T10:50:48.688Z,55.15
2018-02-13T10:51:48.640Z,55.24
2018-02-13T10:52:48.592Z,55.05
2018-02-13T10:53:48.557Z,54.96
2018-02-13T10:54:48.497Z,55.05
2018-02-13T10:55:48.450Z,55.05
2018-02-13T10:56:48.412Z,55.15
2018-02-13T10:57:48.355Z,55.24
2018-02-13T10:58:48.309Z,55.15
2018-02-13T10:59:48.262Z,55.05
2018-02-13T11:00:48.214Z,55.05
2018-02-13T11:01:48.166Z,55.24
2018-02-13T11:02:48.120Z,55.15
2018-02-13T11:03:48.073Z,55.15
2018-02-13T11:04:48.026Z,54.96
2018-02-13T11:05:47.978Z,55.24
2018-02-13T11:06:47.931Z,55.24
2018-02-13T11:07:47.884Z,55.43
2018-02-13T11:08:47.835Z,55.71
2018-02-13T11:09:47.790Z,55.62
2018-02-13T11:10:47.746Z,55.62
2018-02-13T11:11:47.693Z,55.62
2018-02-13T11:12:47.647Z,55.81
2018-02-13T11:13:47.598Z,55.90
2018-02-13T11:14:47.551Z,55.90
2018-02-13T11:15:47.505Z,55.90
2018-02-13T11:16:47.457Z,56.19
2018-02-13T11:17:47.409Z,56.00
2018-02-13T11:18:47.362Z,55.71
2018-02-13T11:19:47.369Z,55.90
2018-02-13T11:20:47.268Z,55.52
2018-02-13T11:21:47.220Z,55.52
2018-02-13T11:22:47.173Z,55.62
2018-02-13T11:23:47.127Z,55.33
2018-02-13T11:24:47.079Z,55.15
2018-02-13T11:25:47.031Z,55.71
2018-02-13T11:26:46.985Z,55.52
2018-02-13T11:27:46.936Z,55.43
2018-02-13T11:28:46.889Z,55.24
2018-02-13T11:29:46.841Z,55.33
2018-02-13T11:30:46.794Z,55.43
2018-02-13T11:31:46.747Z,55.33
2018-02-13T11:32:46.738Z,55.52
2018-02-13T11:33:46.653Z,55.62
2018-02-13T11:34:46.604Z,55.62
2018-02-13T11:35:46.560Z,55.71
2018-02-13T11:36:46.510Z,55.81
2018-02-13T11:37:46.463Z,55.50
2018-02-13T11:38:46.414Z,55.97
2018-02-13T11:39:46.367Z,55.88
2018-02-13T11:40:46.319Z,55.97
2018-02-13T11:41:46.271Z,55.78
2018-02-13T11:42:46.224Z,55.43
2018-02-13T11:43:46.177Z,55.62
2018-02-13T11:44:46.179Z,55.24
2018-02-13T11:45:46.081Z,55.43
2018-02-13T11:46:46.034Z,55.15
2018-02-13T11:47:45.987Z,55.24
2018-02-13T11:48:45.939Z,55.24
2018-02-13T11:49:45.890Z,55.15
2018-02-13T11:50:45.843Z,55.15
2018-02-13T11:51:45.796Z,55.15
2018-02-13T11:52:45.748Z,55.11
2018-02-13T11:53:45.698Z,55.05
2018-02-13T11:54:45.652Z,55.33
2018-02-13T11:55:45.604Z,55.05
2018-02-13T11:56:45.557Z,54.86
2018-02-13T11:57:45.508Z,54.57
2018-02-13T11:58:45.461Z,54.29
2018-02-13T11:59:45.414Z,54.00
2018-02-13T12:00:45.367Z,54.00
2018-02-13T12:01:45.318Z,54.10
2018-02-13T12:02:45.271Z,54.38
2018-02-13T12:03:45.224Z,54.48
2018-02-13T12:04:45.176Z,54.10
2018-02-13T12:05:45.128Z,54.29
2018-02-13T12:06:45.081Z,53.94
2018-02-13T12:07:45.034Z,53.75
2018-02-13T12:08:44.987Z,53.36
2018-02-13T12:09:44.942Z,53.08
2018-02-13T12:10:44.890Z,53.27
2018-02-13T12:11:44.844Z,52.98
2018-02-13T12:12:44.803Z,53.17
2018-02-13T12:13:44.750Z,53.46
2018-02-13T12:14:44.704Z,52.80
2018-02-13T12:15:44.656Z,52.89
2018-02-13T12:16:44.609Z,53.01
2018-02-13T12:17:44.561Z,52.34
2018-02-13T12:18:44.515Z,52.06
2018-02-13T12:19:44.467Z,52.06
2018-02-13T12:20:44.430Z,51.97
2018-02-13T12:21:44.373Z,52.06
2018-02-13T12:22:44.327Z,52.06
2018-02-13T12:23:44.279Z,51.87
2018-02-13T12:24:44.234Z,51.39
2018-02-13T12:25:44.185Z,51.39
2018-02-13T12:26:44.145Z,51.20
2018-02-13T12:27:44.092Z,51.30
2018-02-13T12:28:44.047Z,51.20
2018-02-13T12:29:43.998Z,51.30
2018-02-13T12:30:43.953Z,51.20
2018-02-13T12:31:43.911Z,51.20
2018-02-13T12:32:43.860Z,51.46
2018-02-13T12:33:43.812Z,51.49
2018-02-13T12:34:43.766Z,51.84
2018-02-13T12:35:43.720Z,51.75
2018-02-13T12:36:43.674Z,51.84
2018-02-13T12:37:43.628Z,52.13
2018-02-13T12:38:43.579Z,51.93
2018-02-13T12:39:43.533Z,52.13
2018-02-13T12:40:43.486Z,52.13
2018-02-13T12:41:43.439Z,52.22
2018-02-13T12:42:43.392Z,52.22
2018-02-13T12:43:43.346Z,52.41
2018-02-13T12:44:43.299Z,53.05
2018-02-13T12:45:43.252Z,52.58
2018-02-13T12:46:43.205Z,52.67
2018-02-13T12:47:43.158Z,52.67
2018-02-13T12:48:43.111Z,52.67
2018-02-13T12:49:43.063Z,53.34
2018-02-13T12:50:43.017Z,53.34
2018-02-13T12:51:42.969Z,53.53